sensor_id;sensor_type;location;lat;lon;timestamp;P1;durP1;ratioP1;P2;durP2;ratioP2
5999;SDS011;3028;49.468;7.694;2023-09-18T00:00:23;4.38;;;1.77;;
5999;SDS011;3028;49.468;7.694;2023-09-18T00:02:25;2.22;;;1.58;;
5999;SDS011;3028;49.468;7.694;2023-09-18T00:04:27;1.70;;;1.20;;
5999;SDS011;3028;49.468;7.694;2023-09-18T00:06:29;3.13;;;1.67;;
5999;SDS011;3028;49.468;7.694;2023-09-18T00:08:31;1.15;;;1.05;;
5999;SDS011;3028;49.468;7.694;2023-09-18T00:10:33;1.52;;;1.42;;
5999;SDS011;3028;49.468;7.694;2023-09-18T00:12:35;2.45;;;1.35;;
5999;SDS011;3028;49.468;7.694;2023-09-18T00:14:47;4.53;;;1.30;;
5999;SDS011;3028;49.468;7.694;2023-09-18T00:16:49;3.42;;;1.40;;
5999;SDS011;3028;49.468;7.694;2023-09-18T00:18:59;2.80;;;1.23;;
5999;SDS011;3028;49.468;7.694;2023-09-18T00:21:02;1.67;;;1.38;;
5999;SDS011;3028;49.468;7.694;2023-09-18T00:23:11;1.45;;;1.30;;
5999;SDS011;3028;49.468;7.694;2023-09-18T00:25:13;1.35;;;1.25;;
5999;SDS011;3028;49.468;7.694;2023-09-18T00:27:16;1.98;;;1.75;;
5999;SDS011;3028;49.468;7.694;2023-09-18T00:29:18;1.38;;;1.27;;
5999;SDS011;3028;49.468;7.694;2023-09-18T00:31:20;2.60;;;1.67;;
5999;SDS011;3028;49.468;7.694;2023-09-18T00:33:22;2.20;;;1.33;;
5999;SDS011;3028;49.468;7.694;2023-09-18T00:35:23;2.63;;;1.52;;
5999;SDS011;3028;49.468;7.694;2023-09-18T00:37:25;1.88;;;1.73;;
5999;SDS011;3028;49.468;7.694;2023-09-18T00:39:27;2.17;;;1.30;;
5999;SDS011;3028;49.468;7.694;2023-09-18T00:43:55;1.40;;;1.00;;
5999;SDS011;3028;49.468;7.694;2023-09-18T00:46:07;2.70;;;2.05;;
5999;SDS011;3028;49.468;7.694;2023-09-18T00:48:09;2.90;;;1.80;;
5999;SDS011;3028;49.468;7.694;2023-09-18T00:50:12;8.57;;;2.05;;
5999;SDS011;3028;49.468;7.694;2023-09-18T00:52:15;3.72;;;1.67;;
5999;SDS011;3028;49.468;7.694;2023-09-18T00:54:18;2.58;;;1.88;;
5999;SDS011;3028;49.468;7.694;2023-09-18T00:56:20;1.90;;;1.58;;
5999;SDS011;3028;49.468;7.694;2023-09-18T00:58:31;4.72;;;3.00;;
5999;SDS011;3028;49.468;7.694;2023-09-18T01:00:34;5.32;;;1.73;;
5999;SDS011;3028;49.468;7.694;2023-09-18T01:02:35;2.55;;;1.80;;
5999;SDS011;3028;49.468;7.694;2023-09-18T01:04:37;2.55;;;1.50;;
5999;SDS011;3028;49.468;7.694;2023-09-18T01:06:39;3.10;;;1.60;;
5999;SDS011;3028;49.468;7.694;2023-09-18T01:08:41;7.53;;;2.03;;
5999;SDS011;3028;49.468;7.694;2023-09-18T01:10:53;5.32;;;2.03;;
5999;SDS011;3028;49.468;7.694;2023-09-18T01:13:04;1.88;;;1.63;;
5999;SDS011;3028;49.468;7.694;2023-09-18T01:15:11;1.60;;;1.50;;
5999;SDS011;3028;49.468;7.694;2023-09-18T01:17:23;1.63;;;1.23;;
5999;SDS011;3028;49.468;7.694;2023-09-18T01:19:34;5.95;;;1.50;;
5999;SDS011;3028;49.468;7.694;2023-09-18T01:21:37;3.80;;;1.33;;
5999;SDS011;3028;49.468;7.694;2023-09-18T01:23:38;2.45;;;1.20;;
5999;SDS011;3028;49.468;7.694;2023-09-18T01:25:40;5.97;;;1.45;;
5999;SDS011;3028;49.468;7.694;2023-09-18T01:27:42;1.58;;;1.02;;
5999;SDS011;3028;49.468;7.694;2023-09-18T01:29:47;2.33;;;1.25;;
5999;SDS011;3028;49.468;7.694;2023-09-18T01:31:59;2.25;;;1.60;;
5999;SDS011;3028;49.468;7.694;2023-09-18T01:34:01;1.90;;;1.50;;
5999;SDS011;3028;49.468;7.694;2023-09-18T01:36:03;2.72;;;2.22;;
5999;SDS011;3028;49.468;7.694;2023-09-18T01:38:11;2.17;;;1.73;;
5999;SDS011;3028;49.468;7.694;2023-09-18T01:40:28;2.28;;;1.20;;
5999;SDS011;3028;49.468;7.694;2023-09-18T01:42:30;6.40;;;2.42;;
5999;SDS011;3028;49.468;7.694;2023-09-18T01:44:34;2.22;;;1.75;;
5999;SDS011;3028;49.468;7.694;2023-09-18T01:46:35;2.13;;;1.20;;
5999;SDS011;3028;49.468;7.694;2023-09-18T01:48:44;4.60;;;1.95;;
5999;SDS011;3028;49.468;7.694;2023-09-18T01:50:49;2.13;;;1.90;;
5999;SDS011;3028;49.468;7.694;2023-09-18T01:52:51;7.25;;;2.13;;
5999;SDS011;3028;49.468;7.694;2023-09-18T01:54:54;3.67;;;2.13;;
5999;SDS011;3028;49.468;7.694;2023-09-18T01:56:55;1.95;;;1.38;;
5999;SDS011;3028;49.468;7.694;2023-09-18T01:59:00;3.20;;;1.52;;
5999;SDS011;3028;49.468;7.694;2023-09-18T02:01:02;1.77;;;1.20;;
5999;SDS011;3028;49.468;7.694;2023-09-18T02:03:07;4.05;;;1.38;;
5999;SDS011;3028;49.468;7.694;2023-09-18T02:05:23;1.73;;;1.30;;
5999;SDS011;3028;49.468;7.694;2023-09-18T02:07:26;8.45;;;2.03;;
5999;SDS011;3028;49.468;7.694;2023-09-18T02:09:28;1.45;;;1.35;;
5999;SDS011;3028;49.468;7.694;2023-09-18T02:11:47;1.67;;;1.25;;
5999;SDS011;3028;49.468;7.694;2023-09-18T02:13:49;2.00;;;1.10;;
5999;SDS011;3028;49.468;7.694;2023-09-18T02:15:51;3.60;;;1.10;;
5999;SDS011;3028;49.468;7.694;2023-09-18T02:17:54;2.78;;;1.88;;
5999;SDS011;3028;49.468;7.694;2023-09-18T02:20:09;2.47;;;1.52;;
5999;SDS011;3028;49.468;7.694;2023-09-18T02:22:13;3.25;;;2.13;;
5999;SDS011;3028;49.468;7.694;2023-09-18T02:24:15;2.63;;;1.35;;
5999;SDS011;3028;49.468;7.694;2023-09-18T02:26:17;1.58;;;1.48;;
5999;SDS011;3028;49.468;7.694;2023-09-18T02:28:19;2.60;;;1.30;;
5999;SDS011;3028;49.468;7.694;2023-09-18T02:30:21;5.25;;;1.52;;
5999;SDS011;3028;49.468;7.694;2023-09-18T02:32:39;4.05;;;1.63;;
5999;SDS011;3028;49.468;7.694;2023-09-18T02:34:41;7.15;;;1.75;;
5999;SDS011;3028;49.468;7.694;2023-09-18T02:36:42;1.50;;;1.35;;
5999;SDS011;3028;49.468;7.694;2023-09-18T02:38:44;4.03;;;2.13;;
5999;SDS011;3028;49.468;7.694;2023-09-18T02:40:54;8.45;;;1.33;;
5999;SDS011;3028;49.468;7.694;2023-09-18T02:43:26;3.10;;;1.60;;
5999;SDS011;3028;49.468;7.694;2023-09-18T02:45:28;7.35;;;1.50;;
5999;SDS011;3028;49.468;7.694;2023-09-18T02:47:31;2.47;;;1.20;;
5999;SDS011;3028;49.468;7.694;2023-09-18T02:49:48;1.80;;;1.42;;
5999;SDS011;3028;49.468;7.694;2023-09-18T02:52:02;2.67;;;1.20;;
5999;SDS011;3028;49.468;7.694;2023-09-18T02:57:24;12.70;;;2.25;;
5999;SDS011;3028;49.468;7.694;2023-09-18T03:02:44;7.47;;;1.23;;
5999;SDS011;3028;49.468;7.694;2023-09-18T03:07:12;2.08;;;1.30;;
5999;SDS011;3028;49.468;7.694;2023-09-18T03:09:14;4.80;;;1.45;;
5999;SDS011;3028;49.468;7.694;2023-09-18T03:11:26;4.13;;;1.50;;
5999;SDS011;3028;49.468;7.694;2023-09-18T03:14:48;15.70;;;1.58;;
5999;SDS011;3028;49.468;7.694;2023-09-18T03:17:05;13.05;;;2.72;;
5999;SDS011;3028;49.468;7.694;2023-09-18T03:19:15;7.68;;;1.13;;
5999;SDS011;3028;49.468;7.694;2023-09-18T03:22:02;15.57;;;2.10;;
5999;SDS011;3028;49.468;7.694;2023-09-18T03:24:04;4.20;;;2.15;;
5999;SDS011;3028;49.468;7.694;2023-09-18T03:26:06;1.88;;;1.20;;
5999;SDS011;3028;49.468;7.694;2023-09-18T03:28:08;3.00;;;0.90;;
5999;SDS011;3028;49.468;7.694;2023-09-18T03:30:10;2.10;;;1.25;;
5999;SDS011;3028;49.468;7.694;2023-09-18T03:32:29;7.68;;;2.80;;
5999;SDS011;3028;49.468;7.694;2023-09-18T03:34:31;5.80;;;2.70;;
5999;SDS011;3028;49.468;7.694;2023-09-18T03:36:43;2.28;;;1.42;;
5999;SDS011;3028;49.468;7.694;2023-09-18T03:38:45;3.90;;;2.63;;
5999;SDS011;3028;49.468;7.694;2023-09-18T03:40:53;3.85;;;1.35;;
5999;SDS011;3028;49.468;7.694;2023-09-18T03:42:54;8.82;;;1.13;;
5999;SDS011;3028;49.468;7.694;2023-09-18T03:44:56;3.58;;;1.48;;
5999;SDS011;3028;49.468;7.694;2023-09-18T03:47:19;2.50;;;1.35;;
5999;SDS011;3028;49.468;7.694;2023-09-18T03:49:21;2.85;;;1.23;;
5999;SDS011;3028;49.468;7.694;2023-09-18T03:51:22;2.38;;;1.15;;
5999;SDS011;3028;49.468;7.694;2023-09-18T03:53:25;4.32;;;1.30;;
5999;SDS011;3028;49.468;7.694;2023-09-18T03:55:27;13.95;;;2.60;;
5999;SDS011;3028;49.468;7.694;2023-09-18T03:57:39;8.25;;;1.38;;
5999;SDS011;3028;49.468;7.694;2023-09-18T03:59:51;12.18;;;1.30;;
5999;SDS011;3028;49.468;7.694;2023-09-18T04:01:53;4.25;;;0.98;;
5999;SDS011;3028;49.468;7.694;2023-09-18T04:04:00;4.68;;;1.92;;
5999;SDS011;3028;49.468;7.694;2023-09-18T04:06:09;20.77;;;1.85;;
5999;SDS011;3028;49.468;7.694;2023-09-18T04:08:11;2.03;;;0.80;;
5999;SDS011;3028;49.468;7.694;2023-09-18T04:10:16;5.43;;;1.52;;
5999;SDS011;3028;49.468;7.694;2023-09-18T04:12:32;4.53;;;1.10;;
5999;SDS011;3028;49.468;7.694;2023-09-18T04:14:36;7.28;;;1.23;;
5999;SDS011;3028;49.468;7.694;2023-09-18T04:16:38;8.50;;;1.55;;
5999;SDS011;3028;49.468;7.694;2023-09-18T04:18:48;3.63;;;2.35;;
5999;SDS011;3028;49.468;7.694;2023-09-18T04:20:56;1.58;;;1.08;;
5999;SDS011;3028;49.468;7.694;2023-09-18T04:25:46;1.67;;;0.93;;
5999;SDS011;3028;49.468;7.694;2023-09-18T04:27:48;1.88;;;1.10;;
5999;SDS011;3028;49.468;7.694;2023-09-18T04:29:52;8.80;;;1.55;;
5999;SDS011;3028;49.468;7.694;2023-09-18T04:31:54;9.82;;;2.47;;
5999;SDS011;3028;49.468;7.694;2023-09-18T04:34:01;2.95;;;2.05;;
5999;SDS011;3028;49.468;7.694;2023-09-18T04:36:20;17.67;;;1.80;;
5999;SDS011;3028;49.468;7.694;2023-09-18T04:38:35;2.83;;;1.35;;
5999;SDS011;3028;49.468;7.694;2023-09-18T04:43:17;2.22;;;1.30;;
5999;SDS011;3028;49.468;7.694;2023-09-18T04:45:22;5.22;;;1.77;;
5999;SDS011;3028;49.468;7.694;2023-09-18T04:47:25;11.20;;;1.80;;
5999;SDS011;3028;49.468;7.694;2023-09-18T04:49:27;29.33;;;2.03;;
5999;SDS011;3028;49.468;7.694;2023-09-18T04:51:33;10.48;;;2.35;;
5999;SDS011;3028;49.468;7.694;2023-09-18T04:53:35;5.65;;;1.75;;
5999;SDS011;3028;49.468;7.694;2023-09-18T04:57:56;8.68;;;1.60;;
5999;SDS011;3028;49.468;7.694;2023-09-18T05:00:16;13.38;;;2.75;;
5999;SDS011;3028;49.468;7.694;2023-09-18T05:02:19;3.15;;;1.30;;
5999;SDS011;3028;49.468;7.694;2023-09-18T05:04:21;6.38;;;1.17;;
5999;SDS011;3028;49.468;7.694;2023-09-18T05:11:20;5.43;;;1.42;;
5999;SDS011;3028;49.468;7.694;2023-09-18T05:14:01;3.67;;;0.80;;
5999;SDS011;3028;49.468;7.694;2023-09-18T05:18:29;4.57;;;1.17;;
5999;SDS011;3028;49.468;7.694;2023-09-18T05:20:42;2.30;;;2.10;;
5999;SDS011;3028;49.468;7.694;2023-09-18T05:22:52;2.80;;;1.13;;
5999;SDS011;3028;49.468;7.694;2023-09-18T05:25:26;2.88;;;1.65;;
5999;SDS011;3028;49.468;7.694;2023-09-18T05:28:21;1.80;;;0.95;;
5999;SDS011;3028;49.468;7.694;2023-09-18T05:30:24;14.18;;;1.83;;
5999;SDS011;3028;49.468;7.694;2023-09-18T05:33:10;11.93;;;1.52;;
5999;SDS011;3028;49.468;7.694;2023-09-18T05:35:18;3.00;;;1.08;;
5999;SDS011;3028;49.468;7.694;2023-09-18T05:37:56;2.83;;;1.20;;
5999;SDS011;3028;49.468;7.694;2023-09-18T05:45:31;4.85;;;1.02;;
5999;SDS011;3028;49.468;7.694;2023-09-18T05:47:56;2.83;;;1.45;;
5999;SDS011;3028;49.468;7.694;2023-09-18T05:50:17;4.00;;;1.70;;
5999;SDS011;3028;49.468;7.694;2023-09-18T05:57:15;4.57;;;1.52;;
5999;SDS011;3028;49.468;7.694;2023-09-18T05:59:18;7.10;;;2.33;;
5999;SDS011;3028;49.468;7.694;2023-09-18T06:07:08;7.75;;;1.73;;
5999;SDS011;3028;49.468;7.694;2023-09-18T06:11:28;8.40;;;1.70;;
5999;SDS011;3028;49.468;7.694;2023-09-18T06:14:04;7.03;;;1.38;;
5999;SDS011;3028;49.468;7.694;2023-09-18T06:16:06;6.70;;;1.05;;
5999;SDS011;3028;49.468;7.694;2023-09-18T06:18:09;4.85;;;1.58;;
5999;SDS011;3028;49.468;7.694;2023-09-18T06:20:12;5.00;;;1.83;;
5999;SDS011;3028;49.468;7.694;2023-09-18T06:22:36;7.80;;;1.58;;
5999;SDS011;3028;49.468;7.694;2023-09-18T06:24:43;8.48;;;1.58;;
5999;SDS011;3028;49.468;7.694;2023-09-18T06:31:52;3.78;;;1.40;;
5999;SDS011;3028;49.468;7.694;2023-09-18T06:34:35;2.13;;;1.10;;
5999;SDS011;3028;49.468;7.694;2023-09-18T06:36:37;3.47;;;1.40;;
5999;SDS011;3028;49.468;7.694;2023-09-18T06:41:27;3.67;;;1.70;;
5999;SDS011;3028;49.468;7.694;2023-09-18T06:44:08;3.65;;;1.30;;
5999;SDS011;3028;49.468;7.694;2023-09-18T06:46:10;7.15;;;1.20;;
5999;SDS011;3028;49.468;7.694;2023-09-18T06:48:23;2.88;;;1.20;;
5999;SDS011;3028;49.468;7.694;2023-09-18T06:50:30;11.05;;;1.20;;
5999;SDS011;3028;49.468;7.694;2023-09-18T06:52:32;2.13;;;1.38;;
5999;SDS011;3028;49.468;7.694;2023-09-18T06:54:34;1.88;;;1.05;;
5999;SDS011;3028;49.468;7.694;2023-09-18T06:56:37;1.92;;;1.58;;
5999;SDS011;3028;49.468;7.694;2023-09-18T07:01:18;2.95;;;1.40;;
5999;SDS011;3028;49.468;7.694;2023-09-18T07:03:25;2.80;;;1.13;;
5999;SDS011;3028;49.468;7.694;2023-09-18T07:05:32;3.00;;;1.45;;
5999;SDS011;3028;49.468;7.694;2023-09-18T07:10:38;5.82;;;1.63;;
5999;SDS011;3028;49.468;7.694;2023-09-18T07:12:41;5.22;;;1.52;;
5999;SDS011;3028;49.468;7.694;2023-09-18T07:14:43;6.18;;;0.90;;
5999;SDS011;3028;49.468;7.694;2023-09-18T07:16:54;1.30;;;1.20;;
5999;SDS011;3028;49.468;7.694;2023-09-18T07:19:02;2.88;;;1.08;;
5999;SDS011;3028;49.468;7.694;2023-09-18T07:21:39;1.52;;;1.25;;
5999;SDS011;3028;49.468;7.694;2023-09-18T07:23:51;1.50;;;1.25;;
5999;SDS011;3028;49.468;7.694;2023-09-18T07:25:55;3.35;;;1.30;;
5999;SDS011;3028;49.468;7.694;2023-09-18T07:28:17;2.22;;;0.68;;
5999;SDS011;3028;49.468;7.694;2023-09-18T07:30:20;4.65;;;1.30;;
5999;SDS011;3028;49.468;7.694;2023-09-18T07:32:23;5.28;;;1.20;;
5999;SDS011;3028;49.468;7.694;2023-09-18T07:34:38;3.72;;;1.30;;
5999;SDS011;3028;49.468;7.694;2023-09-18T07:36:40;7.57;;;0.90;;
5999;SDS011;3028;49.468;7.694;2023-09-18T07:38:42;2.58;;;1.65;;
5999;SDS011;3028;49.468;7.694;2023-09-18T07:40:45;0.63;;;0.63;;
5999;SDS011;3028;49.468;7.694;2023-09-18T07:42:48;0.90;;;0.63;;
5999;SDS011;3028;49.468;7.694;2023-09-18T07:44:50;2.92;;;1.35;;
5999;SDS011;3028;49.468;7.694;2023-09-18T07:46:52;3.97;;;1.40;;
5999;SDS011;3028;49.468;7.694;2023-09-18T07:48:55;5.18;;;1.00;;
5999;SDS011;3028;49.468;7.694;2023-09-18T07:50:57;5.75;;;1.13;;
5999;SDS011;3028;49.468;7.694;2023-09-18T07:52:59;9.75;;;0.80;;
5999;SDS011;3028;49.468;7.694;2023-09-18T07:55:02;3.45;;;0.93;;
5999;SDS011;3028;49.468;7.694;2023-09-18T07:57:04;7.88;;;0.70;;
5999;SDS011;3028;49.468;7.694;2023-09-18T07:59:10;1.38;;;1.13;;
5999;SDS011;3028;49.468;7.694;2023-09-18T08:01:12;2.88;;;1.02;;
5999;SDS011;3028;49.468;7.694;2023-09-18T08:03:15;5.30;;;0.70;;
5999;SDS011;3028;49.468;7.694;2023-09-18T08:05:17;2.28;;;0.65;;
5999;SDS011;3028;49.468;7.694;2023-09-18T08:07:19;5.85;;;1.40;;
5999;SDS011;3028;49.468;7.694;2023-09-18T08:09:20;1.60;;;0.60;;
5999;SDS011;3028;49.468;7.694;2023-09-18T08:11:22;1.42;;;0.68;;
5999;SDS011;3028;49.468;7.694;2023-09-18T08:13:24;1.45;;;1.23;;
5999;SDS011;3028;49.468;7.694;2023-09-18T08:15:26;1.20;;;1.15;;
5999;SDS011;3028;49.468;7.694;2023-09-18T08:17:28;1.17;;;0.70;;
5999;SDS011;3028;49.468;7.694;2023-09-18T08:19:31;1.38;;;0.50;;
5999;SDS011;3028;49.468;7.694;2023-09-18T08:21:38;0.80;;;0.73;;
5999;SDS011;3028;49.468;7.694;2023-09-18T08:23:40;2.63;;;0.60;;
5999;SDS011;3028;49.468;7.694;2023-09-18T08:25:42;0.50;;;0.50;;
5999;SDS011;3028;49.468;7.694;2023-09-18T08:27:44;0.73;;;0.30;;
5999;SDS011;3028;49.468;7.694;2023-09-18T08:29:46;0.80;;;0.80;;
5999;SDS011;3028;49.468;7.694;2023-09-18T08:31:48;1.33;;;0.40;;
5999;SDS011;3028;49.468;7.694;2023-09-18T08:33:53;3.63;;;0.57;;
5999;SDS011;3028;49.468;7.694;2023-09-18T08:35:55;2.13;;;0.60;;
5999;SDS011;3028;49.468;7.694;2023-09-18T08:37:56;1.77;;;1.02;;
5999;SDS011;3028;49.468;7.694;2023-09-18T08:39:58;2.22;;;1.17;;
5999;SDS011;3028;49.468;7.694;2023-09-18T08:42:02;3.97;;;0.90;;
5999;SDS011;3028;49.468;7.694;2023-09-18T08:44:05;2.88;;;0.40;;
5999;SDS011;3028;49.468;7.694;2023-09-18T08:46:08;1.35;;;0.40;;
5999;SDS011;3028;49.468;7.694;2023-09-18T08:48:10;0.70;;;0.70;;
5999;SDS011;3028;49.468;7.694;2023-09-18T08:50:12;0.50;;;0.50;;
5999;SDS011;3028;49.468;7.694;2023-09-18T08:52:14;0.80;;;0.55;;
5999;SDS011;3028;49.468;7.694;2023-09-18T08:54:17;2.10;;;0.60;;
5999;SDS011;3028;49.468;7.694;2023-09-18T08:56:19;0.30;;;0.30;;
5999;SDS011;3028;49.468;7.694;2023-09-18T08:58:22;1.08;;;0.50;;
5999;SDS011;3028;49.468;7.694;2023-09-18T09:00:24;0.73;;;0.47;;
5999;SDS011;3028;49.468;7.694;2023-09-18T09:02:27;0.40;;;0.40;;
5999;SDS011;3028;49.468;7.694;2023-09-18T09:04:29;0.50;;;0.50;;
5999;SDS011;3028;49.468;7.694;2023-09-18T09:06:30;0.75;;;0.30;;
5999;SDS011;3028;49.468;7.694;2023-09-18T09:08:33;0.47;;;0.47;;
5999;SDS011;3028;49.468;7.694;2023-09-18T09:10:35;0.43;;;0.43;;
5999;SDS011;3028;49.468;7.694;2023-09-18T09:12:56;0.60;;;0.60;;
5999;SDS011;3028;49.468;7.694;2023-09-18T09:15:02;0.63;;;0.50;;
5999;SDS011;3028;49.468;7.694;2023-09-18T09:17:05;0.65;;;0.65;;
5999;SDS011;3028;49.468;7.694;2023-09-18T09:19:07;5.65;;;1.10;;
5999;SDS011;3028;49.468;7.694;2023-09-18T09:21:09;1.85;;;0.60;;
5999;SDS011;3028;49.468;7.694;2023-09-18T09:23:12;0.77;;;0.77;;
5999;SDS011;3028;49.468;7.694;2023-09-18T09:27:21;0.32;;;0.32;;
5999;SDS011;3028;49.468;7.694;2023-09-18T09:29:23;1.65;;;1.00;;
5999;SDS011;3028;49.468;7.694;2023-09-18T09:31:29;2.65;;;0.47;;
5999;SDS011;3028;49.468;7.694;2023-09-18T09:33:32;1.13;;;0.52;;
5999;SDS011;3028;49.468;7.694;2023-09-18T09:35:35;0.98;;;0.93;;
5999;SDS011;3028;49.468;7.694;2023-09-18T09:37:38;1.63;;;0.90;;
5999;SDS011;3028;49.468;7.694;2023-09-18T09:39:47;1.10;;;0.60;;
5999;SDS011;3028;49.468;7.694;2023-09-18T09:41:52;2.05;;;0.88;;
5999;SDS011;3028;49.468;7.694;2023-09-18T09:43:55;2.78;;;0.52;;
5999;SDS011;3028;49.468;7.694;2023-09-18T09:45:58;2.95;;;0.60;;
5999;SDS011;3028;49.468;7.694;2023-09-18T09:48:03;0.95;;;0.60;;
5999;SDS011;3028;49.468;7.694;2023-09-18T09:50:12;1.63;;;0.50;;
5999;SDS011;3028;49.468;7.694;2023-09-18T09:52:17;2.67;;;0.80;;
5999;SDS011;3028;49.468;7.694;2023-09-18T09:54:31;0.73;;;0.73;;
5999;SDS011;3028;49.468;7.694;2023-09-18T09:56:49;0.60;;;0.60;;
5999;SDS011;3028;49.468;7.694;2023-09-18T09:59:01;0.60;;;0.40;;
5999;SDS011;3028;49.468;7.694;2023-09-18T10:01:06;1.13;;;0.50;;
5999;SDS011;3028;49.468;7.694;2023-09-18T10:03:13;0.85;;;0.50;;
5999;SDS011;3028;49.468;7.694;2023-09-18T10:05:16;1.52;;;0.80;;
5999;SDS011;3028;49.468;7.694;2023-09-18T10:07:19;0.47;;;0.40;;
5999;SDS011;3028;49.468;7.694;2023-09-18T10:09:22;1.00;;;0.80;;
5999;SDS011;3028;49.468;7.694;2023-09-18T10:11:24;4.68;;;0.40;;
5999;SDS011;3028;49.468;7.694;2023-09-18T10:15:36;7.78;;;0.73;;
5999;SDS011;3028;49.468;7.694;2023-09-18T10:17:44;0.60;;;0.60;;
5999;SDS011;3028;49.468;7.694;2023-09-18T10:19:55;0.75;;;0.60;;
5999;SDS011;3028;49.468;7.694;2023-09-18T10:24:34;1.08;;;0.70;;
5999;SDS011;3028;49.468;7.694;2023-09-18T10:26:41;0.55;;;0.55;;
5999;SDS011;3028;49.468;7.694;2023-09-18T10:28:57;2.25;;;0.75;;
5999;SDS011;3028;49.468;7.694;2023-09-18T10:31:07;1.67;;;0.80;;
5999;SDS011;3028;49.468;7.694;2023-09-18T10:33:10;1.05;;;0.73;;
5999;SDS011;3028;49.468;7.694;2023-09-18T10:35:12;0.55;;;0.50;;
5999;SDS011;3028;49.468;7.694;2023-09-18T10:37:14;0.57;;;0.40;;
5999;SDS011;3028;49.468;7.694;2023-09-18T10:39:16;2.85;;;0.60;;
5999;SDS011;3028;49.468;7.694;2023-09-18T10:41:25;0.88;;;0.52;;
5999;SDS011;3028;49.468;7.694;2023-09-18T10:43:28;0.95;;;0.50;;
5999;SDS011;3028;49.468;7.694;2023-09-18T10:45:29;0.77;;;0.40;;
5999;SDS011;3028;49.468;7.694;2023-09-18T10:47:32;1.75;;;0.68;;
5999;SDS011;3028;49.468;7.694;2023-09-18T10:49:35;5.78;;;1.27;;
5999;SDS011;3028;49.468;7.694;2023-09-18T10:51:40;0.73;;;0.70;;
5999;SDS011;3028;49.468;7.694;2023-09-18T10:53:43;4.03;;;0.70;;
5999;SDS011;3028;49.468;7.694;2023-09-18T10:55:45;0.90;;;0.55;;
5999;SDS011;3028;49.468;7.694;2023-09-18T10:57:50;4.78;;;0.57;;
5999;SDS011;3028;49.468;7.694;2023-09-18T10:59:54;0.75;;;0.50;;
5999;SDS011;3028;49.468;7.694;2023-09-18T11:01:56;0.63;;;0.63;;
5999;SDS011;3028;49.468;7.694;2023-09-18T11:04:01;0.55;;;0.50;;
5999;SDS011;3028;49.468;7.694;2023-09-18T11:06:08;0.80;;;0.70;;
5999;SDS011;3028;49.468;7.694;2023-09-18T11:08:33;0.90;;;0.68;;
5999;SDS011;3028;49.468;7.694;2023-09-18T11:10:37;1.17;;;1.08;;
5999;SDS011;3028;49.468;7.694;2023-09-18T11:12:56;0.68;;;0.50;;
5999;SDS011;3028;49.468;7.694;2023-09-18T11:15:07;1.52;;;0.60;;
5999;SDS011;3028;49.468;7.694;2023-09-18T11:19:40;0.63;;;0.57;;
5999;SDS011;3028;49.468;7.694;2023-09-18T11:21:43;0.47;;;0.47;;
5999;SDS011;3028;49.468;7.694;2023-09-18T11:23:47;0.73;;;0.43;;
5999;SDS011;3028;49.468;7.694;2023-09-18T11:26:05;6.13;;;0.70;;
5999;SDS011;3028;49.468;7.694;2023-09-18T11:28:15;0.85;;;0.55;;
5999;SDS011;3028;49.468;7.694;2023-09-18T11:30:19;1.30;;;0.85;;
5999;SDS011;3028;49.468;7.694;2023-09-18T11:32:39;2.05;;;0.65;;
5999;SDS011;3028;49.468;7.694;2023-09-18T11:34:42;1.52;;;0.63;;
5999;SDS011;3028;49.468;7.694;2023-09-18T11:36:44;1.98;;;0.70;;
5999;SDS011;3028;49.468;7.694;2023-09-18T11:38:56;1.40;;;0.82;;
5999;SDS011;3028;49.468;7.694;2023-09-18T11:41:00;4.15;;;0.43;;
5999;SDS011;3028;49.468;7.694;2023-09-18T11:43:48;0.90;;;0.90;;
5999;SDS011;3028;49.468;7.694;2023-09-18T11:45:36;0.63;;;0.63;;
5999;SDS011;3028;49.468;7.694;2023-09-18T11:47:40;1.50;;;0.75;;
5999;SDS011;3028;49.468;7.694;2023-09-18T11:49:51;7.18;;;0.65;;
5999;SDS011;3028;49.468;7.694;2023-09-18T11:51:58;0.55;;;0.55;;
5999;SDS011;3028;49.468;7.694;2023-09-18T11:54:00;2.38;;;1.55;;
5999;SDS011;3028;49.468;7.694;2023-09-18T11:56:02;0.90;;;0.80;;
5999;SDS011;3028;49.468;7.694;2023-09-18T11:58:05;0.80;;;0.40;;
5999;SDS011;3028;49.468;7.694;2023-09-18T12:00:18;0.40;;;0.40;;
5999;SDS011;3028;49.468;7.694;2023-09-18T12:02:27;0.63;;;0.40;;
5999;SDS011;3028;49.468;7.694;2023-09-18T12:04:30;0.50;;;0.40;;
5999;SDS011;3028;49.468;7.694;2023-09-18T12:06:32;0.30;;;0.30;;
5999;SDS011;3028;49.468;7.694;2023-09-18T12:08:36;1.35;;;0.75;;
5999;SDS011;3028;49.468;7.694;2023-09-18T12:10:38;0.22;;;0.22;;
5999;SDS011;3028;49.468;7.694;2023-09-18T12:12:41;0.47;;;0.20;;
5999;SDS011;3028;49.468;7.694;2023-09-18T12:14:43;0.70;;;0.45;;
5999;SDS011;3028;49.468;7.694;2023-09-18T12:16:46;0.93;;;0.75;;
5999;SDS011;3028;49.468;7.694;2023-09-18T12:18:51;1.73;;;0.68;;
5999;SDS011;3028;49.468;7.694;2023-09-18T12:20:53;1.00;;;0.52;;
5999;SDS011;3028;49.468;7.694;2023-09-18T12:22:57;0.70;;;0.55;;
5999;SDS011;3028;49.468;7.694;2023-09-18T12:25:11;3.70;;;1.30;;
5999;SDS011;3028;49.468;7.694;2023-09-18T12:27:17;0.90;;;0.40;;
5999;SDS011;3028;49.468;7.694;2023-09-18T12:29:20;2.92;;;0.30;;
5999;SDS011;3028;49.468;7.694;2023-09-18T12:31:22;0.50;;;0.50;;
5999;SDS011;3028;49.468;7.694;2023-09-18T12:33:24;0.50;;;0.50;;
5999;SDS011;3028;49.468;7.694;2023-09-18T12:35:26;0.75;;;0.50;;
5999;SDS011;3028;49.468;7.694;2023-09-18T12:37:32;2.83;;;0.60;;
5999;SDS011;3028;49.468;7.694;2023-09-18T12:39:35;0.40;;;0.40;;
5999;SDS011;3028;49.468;7.694;2023-09-18T12:41:40;0.55;;;0.35;;
5999;SDS011;3028;49.468;7.694;2023-09-18T12:43:42;5.15;;;0.57;;
5999;SDS011;3028;49.468;7.694;2023-09-18T12:45:45;0.40;;;0.40;;
5999;SDS011;3028;49.468;7.694;2023-09-18T12:47:47;1.55;;;0.40;;
5999;SDS011;3028;49.468;7.694;2023-09-18T12:49:49;0.40;;;0.40;;
5999;SDS011;3028;49.468;7.694;2023-09-18T12:51:57;0.68;;;0.57;;
5999;SDS011;3028;49.468;7.694;2023-09-18T12:54:00;4.40;;;0.77;;
5999;SDS011;3028;49.468;7.694;2023-09-18T12:56:09;1.00;;;0.60;;
5999;SDS011;3028;49.468;7.694;2023-09-18T12:58:21;1.10;;;0.68;;
5999;SDS011;3028;49.468;7.694;2023-09-18T13:00:27;0.63;;;0.60;;
5999;SDS011;3028;49.468;7.694;2023-09-18T13:02:29;1.05;;;1.02;;
5999;SDS011;3028;49.468;7.694;2023-09-18T13:04:34;1.58;;;0.50;;
5999;SDS011;3028;49.468;7.694;2023-09-18T13:06:42;0.70;;;0.70;;
5999;SDS011;3028;49.468;7.694;2023-09-18T13:08:45;0.40;;;0.40;;
5999;SDS011;3028;49.468;7.694;2023-09-18T13:10:47;1.75;;;0.40;;
5999;SDS011;3028;49.468;7.694;2023-09-18T13:12:52;1.38;;;0.70;;
5999;SDS011;3028;49.468;7.694;2023-09-18T13:14:57;1.13;;;0.40;;
5999;SDS011;3028;49.468;7.694;2023-09-18T13:17:06;0.75;;;0.57;;
5999;SDS011;3028;49.468;7.694;2023-09-18T13:19:08;0.70;;;0.70;;
5999;SDS011;3028;49.468;7.694;2023-09-18T13:21:12;0.32;;;0.30;;
5999;SDS011;3028;49.468;7.694;2023-09-18T13:23:15;0.98;;;0.50;;
5999;SDS011;3028;49.468;7.694;2023-09-18T13:25:22;0.30;;;0.30;;
5999;SDS011;3028;49.468;7.694;2023-09-18T13:27:25;0.80;;;0.43;;
5999;SDS011;3028;49.468;7.694;2023-09-18T13:29:27;1.20;;;0.40;;
5999;SDS011;3028;49.468;7.694;2023-09-18T13:31:30;0.40;;;0.40;;
5999;SDS011;3028;49.468;7.694;2023-09-18T13:33:37;0.57;;;0.50;;
5999;SDS011;3028;49.468;7.694;2023-09-18T13:35:41;0.95;;;0.40;;
5999;SDS011;3028;49.468;7.694;2023-09-18T13:37:45;0.47;;;0.47;;
5999;SDS011;3028;49.468;7.694;2023-09-18T13:39:47;1.80;;;0.60;;
5999;SDS011;3028;49.468;7.694;2023-09-18T13:41:49;0.47;;;0.47;;
5999;SDS011;3028;49.468;7.694;2023-09-18T13:43:51;0.30;;;0.30;;
5999;SDS011;3028;49.468;7.694;2023-09-18T13:45:56;1.45;;;0.70;;
5999;SDS011;3028;49.468;7.694;2023-09-18T13:48:00;0.40;;;0.40;;
5999;SDS011;3028;49.468;7.694;2023-09-18T13:50:03;0.60;;;0.47;;
5999;SDS011;3028;49.468;7.694;2023-09-18T13:52:06;1.95;;;0.60;;
5999;SDS011;3028;49.468;7.694;2023-09-18T13:54:08;0.60;;;0.60;;
5999;SDS011;3028;49.468;7.694;2023-09-18T13:56:09;0.47;;;0.40;;
5999;SDS011;3028;49.468;7.694;2023-09-18T13:58:11;1.25;;;0.68;;
5999;SDS011;3028;49.468;7.694;2023-09-18T14:00:13;0.40;;;0.40;;
5999;SDS011;3028;49.468;7.694;2023-09-18T14:02:16;0.38;;;0.38;;
5999;SDS011;3028;49.468;7.694;2023-09-18T14:04:18;1.02;;;0.93;;
5999;SDS011;3028;49.468;7.694;2023-09-18T14:06:20;0.28;;;0.28;;
5999;SDS011;3028;49.468;7.694;2023-09-18T14:08:23;0.43;;;0.43;;
5999;SDS011;3028;49.468;7.694;2023-09-18T14:10:25;1.48;;;0.63;;
5999;SDS011;3028;49.468;7.694;2023-09-18T14:12:31;0.85;;;0.50;;